sensor_id;sensor_type;location;lat;lon;timestamp;P1;durP1;ratioP1;P2;durP2;ratioP2
70342;SDS011;57767;42.068;24.752;2023-02-17T00:00:43;32.60;;;19.90;;
70342;SDS011;57767;42.068;24.752;2023-02-17T00:01:45;31.38;;;18.67;;
70342;SDS011;57767;42.068;24.752;2023-02-17T00:02:47;29.10;;;18.37;;
70342;SDS011;57767;42.068;24.752;2023-02-17T00:03:49;33.42;;;20.60;;
70342;SDS011;57767;42.068;24.752;2023-02-17T00:04:52;34.35;;;21.38;;
70342;SDS011;57767;42.068;24.752;2023-02-17T00:05:54;35.72;;;21.95;;
70342;SDS011;57767;42.068;24.752;2023-02-17T00:06:56;29.75;;;20.25;;
70342;SDS011;57767;42.068;24.752;2023-02-17T00:07:58;31.55;;;18.88;;
70342;SDS011;57767;42.068;24.752;2023-02-17T00:08:59;29.45;;;18.73;;
70342;SDS011;57767;42.068;24.752;2023-02-17T00:10:02;41.33;;;24.02;;
70342;SDS011;57767;42.068;24.752;2023-02-17T00:11:04;40.25;;;23.55;;
70342;SDS011;57767;42.068;24.752;2023-02-17T00:12:06;37.88;;;22.45;;
70342;SDS011;57767;42.068;24.752;2023-02-17T00:13:08;35.88;;;22.58;;
70342;SDS011;57767;42.068;24.752;2023-02-17T00:14:10;40.72;;;22.10;;
70342;SDS011;57767;42.068;24.752;2023-02-17T00:15:13;35.13;;;21.30;;
70342;SDS011;57767;42.068;24.752;2023-02-17T00:16:16;38.25;;;23.10;;
70342;SDS011;57767;42.068;24.752;2023-02-17T00:17:19;36.03;;;22.83;;
70342;SDS011;57767;42.068;24.752;2023-02-17T00:18:21;35.08;;;21.40;;
70342;SDS011;57767;42.068;24.752;2023-02-17T00:19:24;39.97;;;21.65;;
70342;SDS011;57767;42.068;24.752;2023-02-17T00:20:27;35.90;;;22.42;;
70342;SDS011;57767;42.068;24.752;2023-02-17T00:21:30;32.70;;;20.50;;
70342;SDS011;57767;42.068;24.752;2023-02-17T00:22:32;34.20;;;21.63;;
70342;SDS011;57767;42.068;24.752;2023-02-17T00:23:34;33.95;;;21.92;;
70342;SDS011;57767;42.068;24.752;2023-02-17T00:24:36;32.28;;;20.52;;
70342;SDS011;57767;42.068;24.752;2023-02-17T00:25:39;31.95;;;20.45;;
70342;SDS011;57767;42.068;24.752;2023-02-17T00:26:41;32.17;;;20.67;;
70342;SDS011;57767;42.068;24.752;2023-02-17T00:27:43;31.45;;;19.13;;
70342;SDS011;57767;42.068;24.752;2023-02-17T00:28:45;34.08;;;20.27;;
70342;SDS011;57767;42.068;24.752;2023-02-17T00:29:47;35.15;;;22.15;;
70342;SDS011;57767;42.068;24.752;2023-02-17T00:30:49;35.88;;;21.48;;
70342;SDS011;57767;42.068;24.752;2023-02-17T00:31:51;33.60;;;18.88;;
70342;SDS011;57767;42.068;24.752;2023-02-17T00:32:54;31.52;;;19.30;;
70342;SDS011;57767;42.068;24.752;2023-02-17T00:33:55;34.33;;;20.23;;
70342;SDS011;57767;42.068;24.752;2023-02-17T00:34:57;28.90;;;19.33;;
70342;SDS011;57767;42.068;24.752;2023-02-17T00:36:01;29.30;;;18.60;;
70342;SDS011;57767;42.068;24.752;2023-02-17T00:37:04;28.55;;;18.65;;
70342;SDS011;57767;42.068;24.752;2023-02-17T00:38:06;28.38;;;19.02;;
70342;SDS011;57767;42.068;24.752;2023-02-17T00:39:08;29.88;;;19.17;;
70342;SDS011;57767;42.068;24.752;2023-02-17T00:40:10;30.08;;;19.08;;
70342;SDS011;57767;42.068;24.752;2023-02-17T00:41:13;28.90;;;17.45;;
70342;SDS011;57767;42.068;24.752;2023-02-17T00:42:14;27.77;;;17.92;;
70342;SDS011;57767;42.068;24.752;2023-02-17T00:43:16;30.42;;;16.95;;
70342;SDS011;57767;42.068;24.752;2023-02-17T00:44:20;28.90;;;17.60;;
70342;SDS011;57767;42.068;24.752;2023-02-17T00:45:23;25.85;;;16.17;;
70342;SDS011;57767;42.068;24.752;2023-02-17T00:46:25;28.58;;;17.23;;
70342;SDS011;57767;42.068;24.752;2023-02-17T00:47:27;28.27;;;17.02;;
70342;SDS011;57767;42.068;24.752;2023-02-17T00:48:29;29.92;;;16.65;;
70342;SDS011;57767;42.068;24.752;2023-02-17T00:49:32;23.70;;;16.50;;
70342;SDS011;57767;42.068;24.752;2023-02-17T00:50:33;28.48;;;17.05;;
70342;SDS011;57767;42.068;24.752;2023-02-17T00:51:35;27.00;;;15.75;;
70342;SDS011;57767;42.068;24.752;2023-02-17T00:52:37;28.42;;;17.02;;
70342;SDS011;57767;42.068;24.752;2023-02-17T00:53:38;26.25;;;16.02;;
70342;SDS011;57767;42.068;24.752;2023-02-17T00:54:41;25.98;;;15.15;;
70342;SDS011;57767;42.068;24.752;2023-02-17T00:55:43;18.75;;;12.27;;
70342;SDS011;57767;42.068;24.752;2023-02-17T00:56:45;20.65;;;13.30;;
70342;SDS011;57767;42.068;24.752;2023-02-17T00:57:46;24.20;;;13.52;;
70342;SDS011;57767;42.068;24.752;2023-02-17T00:58:48;22.60;;;14.00;;
70342;SDS011;57767;42.068;24.752;2023-02-17T00:59:50;22.88;;;13.82;;
70342;SDS011;57767;42.068;24.752;2023-02-17T01:00:53;20.00;;;12.98;;
70342;SDS011;57767;42.068;24.752;2023-02-17T01:01:56;23.35;;;14.00;;
70342;SDS011;57767;42.068;24.752;2023-02-17T01:02:57;20.15;;;13.60;;
70342;SDS011;57767;42.068;24.752;2023-02-17T01:03:59;25.05;;;14.05;;
70342;SDS011;57767;42.068;24.752;2023-02-17T01:05:01;22.58;;;13.45;;
70342;SDS011;57767;42.068;24.752;2023-02-17T01:06:04;22.95;;;14.70;;
70342;SDS011;57767;42.068;24.752;2023-02-17T01:07:08;24.88;;;15.57;;
70342;SDS011;57767;42.068;24.752;2023-02-17T01:08:10;26.15;;;15.75;;
70342;SDS011;57767;42.068;24.752;2023-02-17T01:09:13;28.55;;;15.63;;
70342;SDS011;57767;42.068;24.752;2023-02-17T01:10:15;28.60;;;15.30;;
70342;SDS011;57767;42.068;24.752;2023-02-17T01:11:18;30.98;;;17.98;;
70342;SDS011;57767;42.068;24.752;2023-02-17T01:12:21;31.92;;;17.50;;
70342;SDS011;57767;42.068;24.752;2023-02-17T01:13:23;29.48;;;17.85;;
70342;SDS011;57767;42.068;24.752;2023-02-17T01:14:25;29.08;;;17.13;;
70342;SDS011;57767;42.068;24.752;2023-02-17T01:15:27;29.27;;;18.02;;
70342;SDS011;57767;42.068;24.752;2023-02-17T01:16:30;30.23;;;16.92;;
70342;SDS011;57767;42.068;24.752;2023-02-17T01:17:36;26.83;;;17.30;;
70342;SDS011;57767;42.068;24.752;2023-02-17T01:18:38;31.27;;;18.35;;
70342;SDS011;57767;42.068;24.752;2023-02-17T01:19:39;28.17;;;16.98;;
70342;SDS011;57767;42.068;24.752;2023-02-17T01:20:41;32.53;;;17.50;;
70342;SDS011;57767;42.068;24.752;2023-02-17T01:21:43;37.22;;;18.70;;
70342;SDS011;57767;42.068;24.752;2023-02-17T01:22:45;31.02;;;17.38;;
70342;SDS011;57767;42.068;24.752;2023-02-17T01:23:48;32.10;;;18.42;;
70342;SDS011;57767;42.068;24.752;2023-02-17T01:24:51;37.03;;;19.88;;
70342;SDS011;57767;42.068;24.752;2023-02-17T01:25:53;38.88;;;20.10;;
70342;SDS011;57767;42.068;24.752;2023-02-17T01:26:55;38.70;;;20.85;;
70342;SDS011;57767;42.068;24.752;2023-02-17T01:27:56;36.30;;;20.65;;
70342;SDS011;57767;42.068;24.752;2023-02-17T01:28:58;34.03;;;20.15;;
70342;SDS011;57767;42.068;24.752;2023-02-17T01:30:00;39.97;;;20.92;;
70342;SDS011;57767;42.068;24.752;2023-02-17T01:31:06;40.03;;;21.55;;
70342;SDS011;57767;42.068;24.752;2023-02-17T01:32:09;40.28;;;21.45;;
70342;SDS011;57767;42.068;24.752;2023-02-17T01:33:10;39.83;;;23.50;;
70342;SDS011;57767;42.068;24.752;2023-02-17T01:34:12;33.10;;;20.05;;
70342;SDS011;57767;42.068;24.752;2023-02-17T01:35:14;32.22;;;21.30;;
70342;SDS011;57767;42.068;24.752;2023-02-17T01:36:17;36.70;;;21.85;;
70342;SDS011;57767;42.068;24.752;2023-02-17T01:37:19;33.95;;;21.08;;
70342;SDS011;57767;42.068;24.752;2023-02-17T01:38:21;34.95;;;21.75;;
70342;SDS011;57767;42.068;24.752;2023-02-17T01:39:22;37.95;;;22.05;;
70342;SDS011;57767;42.068;24.752;2023-02-17T01:40:24;36.75;;;22.33;;
70342;SDS011;57767;42.068;24.752;2023-02-17T01:41:26;38.20;;;24.48;;
70342;SDS011;57767;42.068;24.752;2023-02-17T01:42:29;37.03;;;23.27;;
70342;SDS011;57767;42.068;24.752;2023-02-17T01:43:30;34.95;;;23.38;;
70342;SDS011;57767;42.068;24.752;2023-02-17T01:44:33;37.78;;;24.67;;
70342;SDS011;57767;42.068;24.752;2023-02-17T01:45:36;41.42;;;22.58;;
70342;SDS011;57767;42.068;24.752;2023-02-17T01:46:43;37.33;;;22.05;;
70342;SDS011;57767;42.068;24.752;2023-02-17T01:47:48;39.00;;;22.30;;
70342;SDS011;57767;42.068;24.752;2023-02-17T01:48:54;33.65;;;20.77;;
70342;SDS011;57767;42.068;24.752;2023-02-17T01:49:56;33.03;;;20.15;;
70342;SDS011;57767;42.068;24.752;2023-02-17T01:51:10;29.73;;;18.75;;
70342;SDS011;57767;42.068;24.752;2023-02-17T01:52:21;32.85;;;16.45;;
70342;SDS011;57767;42.068;24.752;2023-02-17T01:53:29;27.08;;;17.23;;
70342;SDS011;57767;42.068;24.752;2023-02-17T01:54:41;26.17;;;17.13;;
70342;SDS011;57767;42.068;24.752;2023-02-17T01:55:46;23.98;;;15.90;;
70342;SDS011;57767;42.068;24.752;2023-02-17T01:56:48;28.25;;;16.80;;
70342;SDS011;57767;42.068;24.752;2023-02-17T01:57:52;24.77;;;16.08;;
70342;SDS011;57767;42.068;24.752;2023-02-17T01:59:00;25.40;;;15.30;;
70342;SDS011;57767;42.068;24.752;2023-02-17T02:00:06;24.58;;;15.38;;
70342;SDS011;57767;42.068;24.752;2023-02-17T02:01:10;22.45;;;14.15;;
70342;SDS011;57767;42.068;24.752;2023-02-17T02:02:12;24.05;;;15.30;;
70342;SDS011;57767;42.068;24.752;2023-02-17T02:03:14;23.30;;;14.90;;
70342;SDS011;57767;42.068;24.752;2023-02-17T02:04:17;24.27;;;14.77;;
70342;SDS011;57767;42.068;24.752;2023-02-17T02:05:21;24.13;;;14.93;;
70342;SDS011;57767;42.068;24.752;2023-02-17T02:06:23;24.25;;;16.52;;
70342;SDS011;57767;42.068;24.752;2023-02-17T02:07:30;24.92;;;16.75;;
70342;SDS011;57767;42.068;24.752;2023-02-17T02:08:37;30.35;;;18.80;;
70342;SDS011;57767;42.068;24.752;2023-02-17T02:09:49;33.05;;;18.85;;
70342;SDS011;57767;42.068;24.752;2023-02-17T02:10:52;29.92;;;18.55;;
70342;SDS011;57767;42.068;24.752;2023-02-17T02:11:54;31.38;;;19.08;;
70342;SDS011;57767;42.068;24.752;2023-02-17T02:12:56;33.28;;;19.33;;
70342;SDS011;57767;42.068;24.752;2023-02-17T02:13:58;32.58;;;19.13;;
70342;SDS011;57767;42.068;24.752;2023-02-17T02:15:05;32.65;;;20.58;;
70342;SDS011;57767;42.068;24.752;2023-02-17T02:17:34;35.00;;;22.05;;
70342;SDS011;57767;42.068;24.752;2023-02-17T02:21:37;41.72;;;24.30;;
70342;SDS011;57767;42.068;24.752;2023-02-17T02:27:44;42.30;;;26.45;;
70342;SDS011;57767;42.068;24.752;2023-02-17T02:36:43;41.00;;;24.48;;
70342;SDS011;57767;42.068;24.752;2023-02-17T02:37:51;48.30;;;26.92;;
70342;SDS011;57767;42.068;24.752;2023-02-17T02:39:01;42.20;;;25.90;;
70342;SDS011;57767;42.068;24.752;2023-02-17T02:40:18;45.45;;;25.95;;
70342;SDS011;57767;42.068;24.752;2023-02-17T02:41:29;51.55;;;28.77;;
70342;SDS011;57767;42.068;24.752;2023-02-17T02:42:34;42.97;;;26.30;;
70342;SDS011;57767;42.068;24.752;2023-02-17T02:43:37;46.30;;;27.60;;
70342;SDS011;57767;42.068;24.752;2023-02-17T02:44:39;47.55;;;28.02;;
70342;SDS011;57767;42.068;24.752;2023-02-17T02:45:41;52.00;;;28.63;;
70342;SDS011;57767;42.068;24.752;2023-02-17T02:46:43;46.22;;;27.80;;
70342;SDS011;57767;42.068;24.752;2023-02-17T02:47:55;47.97;;;29.23;;
70342;SDS011;57767;42.068;24.752;2023-02-17T02:48:58;43.17;;;26.75;;
70342;SDS011;57767;42.068;24.752;2023-02-17T02:50:01;43.75;;;26.10;;
70342;SDS011;57767;42.068;24.752;2023-02-17T02:52:15;44.30;;;27.48;;
70342;SDS011;57767;42.068;24.752;2023-02-17T02:54:56;51.58;;;26.52;;
70342;SDS011;57767;42.068;24.752;2023-02-17T02:56:17;46.78;;;25.75;;
70342;SDS011;57767;42.068;24.752;2023-02-17T03:01:44;55.55;;;29.02;;
70342;SDS011;57767;42.068;24.752;2023-02-17T03:03:00;54.25;;;26.95;;
70342;SDS011;57767;42.068;24.752;2023-02-17T03:04:27;52.10;;;27.20;;
70342;SDS011;57767;42.068;24.752;2023-02-17T03:05:51;46.85;;;26.45;;
70342;SDS011;57767;42.068;24.752;2023-02-17T03:07:21;45.38;;;26.30;;
70342;SDS011;57767;42.068;24.752;2023-02-17T03:08:27;45.53;;;27.10;;
70342;SDS011;57767;42.068;24.752;2023-02-17T03:09:30;45.28;;;25.42;;
70342;SDS011;57767;42.068;24.752;2023-02-17T03:10:32;42.17;;;26.25;;
70342;SDS011;57767;42.068;24.752;2023-02-17T03:11:34;44.50;;;26.73;;
70342;SDS011;57767;42.068;24.752;2023-02-17T03:12:36;45.20;;;27.23;;
70342;SDS011;57767;42.068;24.752;2023-02-17T03:13:39;43.75;;;27.23;;
70342;SDS011;57767;42.068;24.752;2023-02-17T03:14:43;43.70;;;25.63;;
70342;SDS011;57767;42.068;24.752;2023-02-17T03:15:45;46.78;;;27.83;;
70342;SDS011;57767;42.068;24.752;2023-02-17T03:16:48;49.95;;;29.38;;
70342;SDS011;57767;42.068;24.752;2023-02-17T03:17:51;46.85;;;29.33;;
70342;SDS011;57767;42.068;24.752;2023-02-17T03:18:53;44.63;;;27.98;;
70342;SDS011;57767;42.068;24.752;2023-02-17T03:19:54;45.72;;;29.17;;
70342;SDS011;57767;42.068;24.752;2023-02-17T03:20:57;46.17;;;28.73;;
70342;SDS011;57767;42.068;24.752;2023-02-17T03:23:16;48.28;;;30.90;;
70342;SDS011;57767;42.068;24.752;2023-02-17T03:24:18;47.20;;;29.05;;
70342;SDS011;57767;42.068;24.752;2023-02-17T03:25:20;43.50;;;27.45;;
70342;SDS011;57767;42.068;24.752;2023-02-17T03:26:22;47.33;;;27.85;;
70342;SDS011;57767;42.068;24.752;2023-02-17T03:27:24;43.80;;;27.17;;
70342;SDS011;57767;42.068;24.752;2023-02-17T03:28:25;43.85;;;25.85;;
70342;SDS011;57767;42.068;24.752;2023-02-17T03:29:27;41.83;;;26.42;;
70342;SDS011;57767;42.068;24.752;2023-02-17T03:30:29;45.25;;;25.60;;
70342;SDS011;57767;42.068;24.752;2023-02-17T03:31:31;42.00;;;25.60;;
70342;SDS011;57767;42.068;24.752;2023-02-17T03:32:33;45.80;;;25.63;;
70342;SDS011;57767;42.068;24.752;2023-02-17T03:33:35;40.58;;;24.48;;
70342;SDS011;57767;42.068;24.752;2023-02-17T03:34:37;49.75;;;26.08;;
70342;SDS011;57767;42.068;24.752;2023-02-17T03:35:39;48.17;;;27.67;;
70342;SDS011;57767;42.068;24.752;2023-02-17T03:36:40;58.28;;;30.00;;
70342;SDS011;57767;42.068;24.752;2023-02-17T03:37:42;54.67;;;27.70;;
70342;SDS011;57767;42.068;24.752;2023-02-17T03:38:44;44.90;;;26.63;;
70342;SDS011;57767;42.068;24.752;2023-02-17T03:39:46;52.05;;;28.85;;
70342;SDS011;57767;42.068;24.752;2023-02-17T03:40:48;44.08;;;25.92;;
70342;SDS011;57767;42.068;24.752;2023-02-17T03:41:49;52.00;;;27.67;;
70342;SDS011;57767;42.068;24.752;2023-02-17T03:42:52;52.97;;;28.10;;
70342;SDS011;57767;42.068;24.752;2023-02-17T03:43:53;56.10;;;28.63;;
70342;SDS011;57767;42.068;24.752;2023-02-17T03:44:55;66.30;;;32.72;;
70342;SDS011;57767;42.068;24.752;2023-02-17T03:45:57;65.40;;;32.60;;
70342;SDS011;57767;42.068;24.752;2023-02-17T03:46:59;67.72;;;33.85;;
70342;SDS011;57767;42.068;24.752;2023-02-17T03:48:00;61.65;;;32.35;;
70342;SDS011;57767;42.068;24.752;2023-02-17T03:49:02;70.65;;;34.03;;
70342;SDS011;57767;42.068;24.752;2023-02-17T03:50:04;69.80;;;35.92;;
70342;SDS011;57767;42.068;24.752;2023-02-17T03:51:13;62.20;;;31.90;;
70342;SDS011;57767;42.068;24.752;2023-02-17T03:52:15;68.70;;;33.70;;
70342;SDS011;57767;42.068;24.752;2023-02-17T03:53:17;63.97;;;33.10;;
70342;SDS011;57767;42.068;24.752;2023-02-17T03:54:19;56.33;;;30.15;;
70342;SDS011;57767;42.068;24.752;2023-02-17T03:55:21;49.97;;;29.45;;
70342;SDS011;57767;42.068;24.752;2023-02-17T03:56:23;46.90;;;26.45;;
70342;SDS011;57767;42.068;24.752;2023-02-17T03:57:25;49.28;;;25.90;;
70342;SDS011;57767;42.068;24.752;2023-02-17T03:58:26;43.25;;;26.05;;
70342;SDS011;57767;42.068;24.752;2023-02-17T03:59:28;45.88;;;25.55;;
70342;SDS011;57767;42.068;24.752;2023-02-17T04:00:30;50.05;;;27.15;;
70342;SDS011;57767;42.068;24.752;2023-02-17T04:01:32;46.88;;;26.02;;
70342;SDS011;57767;42.068;24.752;2023-02-17T04:02:34;45.22;;;25.65;;
70342;SDS011;57767;42.068;24.752;2023-02-17T04:03:36;45.53;;;25.02;;
70342;SDS011;57767;42.068;24.752;2023-02-17T04:04:38;48.10;;;27.17;;
70342;SDS011;57767;42.068;24.752;2023-02-17T04:05:42;44.20;;;26.10;;
70342;SDS011;57767;42.068;24.752;2023-02-17T04:06:45;46.35;;;27.00;;
70342;SDS011;57767;42.068;24.752;2023-02-17T04:07:47;44.05;;;27.00;;
70342;SDS011;57767;42.068;24.752;2023-02-17T04:08:48;43.20;;;24.52;;
70342;SDS011;57767;42.068;24.752;2023-02-17T04:09:50;44.17;;;24.70;;
70342;SDS011;57767;42.068;24.752;2023-02-17T04:10:53;47.67;;;24.15;;
70342;SDS011;57767;42.068;24.752;2023-02-17T04:11:56;39.85;;;23.00;;
70342;SDS011;57767;42.068;24.752;2023-02-17T04:12:58;41.28;;;23.98;;
70342;SDS011;57767;42.068;24.752;2023-02-17T04:14:00;41.42;;;23.02;;
70342;SDS011;57767;42.068;24.752;2023-02-17T04:15:01;49.17;;;24.77;;
70342;SDS011;57767;42.068;24.752;2023-02-17T04:16:03;46.00;;;25.63;;
70342;SDS011;57767;42.068;24.752;2023-02-17T04:17:07;64.20;;;32.25;;
70342;SDS011;57767;42.068;24.752;2023-02-17T04:18:09;48.47;;;26.80;;
70342;SDS011;57767;42.068;24.752;2023-02-17T04:19:10;40.08;;;25.00;;
70342;SDS011;57767;42.068;24.752;2023-02-17T04:20:12;39.22;;;25.23;;
70342;SDS011;57767;42.068;24.752;2023-02-17T04:21:14;39.92;;;23.17;;
70342;SDS011;57767;42.068;24.752;2023-02-17T04:22:16;34.08;;;22.77;;
70342;SDS011;57767;42.068;24.752;2023-02-17T04:23:17;35.88;;;23.20;;
70342;SDS011;57767;42.068;24.752;2023-02-17T04:24:19;40.80;;;22.75;;
70342;SDS011;57767;42.068;24.752;2023-02-17T04:25:21;39.13;;;24.13;;
70342;SDS011;57767;42.068;24.752;2023-02-17T04:26:23;36.75;;;23.17;;
70342;SDS011;57767;42.068;24.752;2023-02-17T04:27:25;38.92;;;25.13;;
70342;SDS011;57767;42.068;24.752;2023-02-17T04:28:27;38.75;;;23.40;;
70342;SDS011;57767;42.068;24.752;2023-02-17T04:29:29;36.20;;;22.40;;
70342;SDS011;57767;42.068;24.752;2023-02-17T04:30:30;39.65;;;23.88;;
70342;SDS011;57767;42.068;24.752;2023-02-17T04:31:32;36.88;;;23.33;;
70342;SDS011;57767;42.068;24.752;2023-02-17T04:32:34;38.63;;;23.15;;
70342;SDS011;57767;42.068;24.752;2023-02-17T04:33:36;41.05;;;22.98;;
70342;SDS011;57767;42.068;24.752;2023-02-17T04:34:38;45.22;;;23.73;;
70342;SDS011;57767;42.068;24.752;2023-02-17T04:35:40;40.17;;;23.23;;
70342;SDS011;57767;42.068;24.752;2023-02-17T04:36:42;37.35;;;22.60;;
70342;SDS011;57767;42.068;24.752;2023-02-17T04:37:44;35.50;;;21.83;;
70342;SDS011;57767;42.068;24.752;2023-02-17T04:38:46;39.58;;;22.98;;
70342;SDS011;57767;42.068;24.752;2023-02-17T04:39:48;36.83;;;22.02;;
70342;SDS011;57767;42.068;24.752;2023-02-17T04:40:51;40.00;;;22.30;;
70342;SDS011;57767;42.068;24.752;2023-02-17T04:41:55;60.25;;;31.95;;
70342;SDS011;57767;42.068;24.752;2023-02-17T04:42:57;76.25;;;37.88;;
70342;SDS011;57767;42.068;24.752;2023-02-17T04:43:58;214.02;;;90.55;;
70342;SDS011;57767;42.068;24.752;2023-02-17T04:45:00;169.90;;;77.53;;
70342;SDS011;57767;42.068;24.752;2023-02-17T04:46:02;132.75;;;63.40;;
70342;SDS011;57767;42.068;24.752;2023-02-17T04:47:04;119.45;;;55.97;;
70342;SDS011;57767;42.068;24.752;2023-02-17T04:48:06;91.90;;;47.83;;
70342;SDS011;57767;42.068;24.752;2023-02-17T04:49:08;64.07;;;38.00;;
70342;SDS011;57767;42.068;24.752;2023-02-17T04:50:10;51.35;;;31.00;;
70342;SDS011;57767;42.068;24.752;2023-02-17T04:51:12;47.10;;;27.52;;
70342;SDS011;57767;42.068;24.752;2023-02-17T04:52:14;39.80;;;25.45;;
70342;SDS011;57767;42.068;24.752;2023-02-17T04:53:16;46.05;;;28.02;;
70342;SDS011;57767;42.068;24.752;2023-02-17T04:54:18;48.60;;;28.13;;
70342;SDS011;57767;42.068;24.752;2023-02-17T04:55:19;56.20;;;31.25;;
70342;SDS011;57767;42.068;24.752;2023-02-17T04:56:21;54.25;;;31.80;;
70342;SDS011;57767;42.068;24.752;2023-02-17T04:57:23;59.08;;;36.10;;
70342;SDS011;57767;42.068;24.752;2023-02-17T04:58:25;75.35;;;39.90;;
70342;SDS011;57767;42.068;24.752;2023-02-17T04:59:27;77.80;;;42.70;;
70342;SDS011;57767;42.068;24.752;2023-02-17T05:00:28;88.07;;;49.15;;
70342;SDS011;57767;42.068;24.752;2023-02-17T05:01:30;98.70;;;56.28;;
70342;SDS011;57767;42.068;24.752;2023-02-17T05:02:32;83.70;;;48.20;;
70342;SDS011;57767;42.068;24.752;2023-02-17T05:03:34;69.97;;;42.30;;
70342;SDS011;57767;42.068;24.752;2023-02-17T05:04:36;69.45;;;40.95;;
70342;SDS011;57767;42.068;24.752;2023-02-17T05:05:38;64.30;;;39.17;;
70342;SDS011;57767;42.068;24.752;2023-02-17T05:06:39;71.68;;;37.67;;
70342;SDS011;57767;42.068;24.752;2023-02-17T05:07:41;55.70;;;29.70;;
70342;SDS011;57767;42.068;24.752;2023-02-17T05:08:43;48.10;;;27.63;;
70342;SDS011;57767;42.068;24.752;2023-02-17T05:09:45;56.08;;;28.45;;
70342;SDS011;57767;42.068;24.752;2023-02-17T05:10:46;43.42;;;26.90;;
70342;SDS011;57767;42.068;24.752;2023-02-17T05:11:50;46.83;;;27.95;;
70342;SDS011;57767;42.068;24.752;2023-02-17T05:12:52;45.92;;;27.58;;
70342;SDS011;57767;42.068;24.752;2023-02-17T05:13:54;50.30;;;29.40;;
70342;SDS011;57767;42.068;24.752;2023-02-17T05:14:55;51.15;;;28.80;;
70342;SDS011;57767;42.068;24.752;2023-02-17T05:15:57;57.15;;;30.77;;
70342;SDS011;57767;42.068;24.752;2023-02-17T05:16:59;51.90;;;29.75;;
70342;SDS011;57767;42.068;24.752;2023-02-17T05:18:01;53.40;;;29.27;;
70342;SDS011;57767;42.068;24.752;2023-02-17T05:19:03;49.35;;;30.55;;
70342;SDS011;57767;42.068;24.752;2023-02-17T05:20:06;54.35;;;29.80;;
70342;SDS011;57767;42.068;24.752;2023-02-17T05:21:09;46.22;;;29.10;;
70342;SDS011;57767;42.068;24.752;2023-02-17T05:22:11;46.60;;;28.08;;
70342;SDS011;57767;42.068;24.752;2023-02-17T05:23:13;50.60;;;27.73;;
70342;SDS011;57767;42.068;24.752;2023-02-17T05:24:15;46.20;;;26.67;;
70342;SDS011;57767;42.068;24.752;2023-02-17T05:25:16;51.00;;;29.05;;
70342;SDS011;57767;42.068;24.752;2023-02-17T05:26:18;58.67;;;32.10;;
70342;SDS011;57767;42.068;24.752;2023-02-17T05:27:20;47.35;;;28.00;;
70342;SDS011;57767;42.068;24.752;2023-02-17T05:28:22;45.25;;;28.27;;
70342;SDS011;57767;42.068;24.752;2023-02-17T05:29:24;45.58;;;29.48;;
70342;SDS011;57767;42.068;24.752;2023-02-17T05:30:25;39.67;;;25.50;;
70342;SDS011;57767;42.068;24.752;2023-02-17T05:31:27;39.20;;;24.92;;
70342;SDS011;57767;42.068;24.752;2023-02-17T05:32:29;49.00;;;27.15;;
70342;SDS011;57767;42.068;24.752;2023-02-17T05:33:31;47.03;;;27.80;;
70342;SDS011;57767;42.068;24.752;2023-02-17T05:34:33;41.83;;;26.35;;
70342;SDS011;57767;42.068;24.752;2023-02-17T05:35:35;39.15;;;25.65;;
70342;SDS011;57767;42.068;24.752;2023-02-17T05:36:37;42.70;;;25.52;;
70342;SDS011;57767;42.068;24.752;2023-02-17T05:37:38;43.90;;;25.77;;
70342;SDS011;57767;42.068;24.752;2023-02-17T05:38:40;48.08;;;27.63;;
70342;SDS011;57767;42.068;24.752;2023-02-17T05:39:42;45.20;;;27.33;;
70342;SDS011;57767;42.068;24.752;2023-02-17T05:40:44;45.55;;;27.58;;
70342;SDS011;57767;42.068;24.752;2023-02-17T05:41:45;49.40;;;29.70;;
70342;SDS011;57767;42.068;24.752;2023-02-17T05:42:47;51.65;;;29.40;;
70342;SDS011;57767;42.068;24.752;2023-02-17T05:43:49;49.47;;;29.35;;
70342;SDS011;57767;42.068;24.752;2023-02-17T05:44:51;52.85;;;30.95;;
70342;SDS011;57767;42.068;24.752;2023-02-17T05:45:52;58.72;;;31.92;;
70342;SDS011;57767;42.068;24.752;2023-02-17T05:46:54;46.95;;;30.33;;
70342;SDS011;57767;42.068;24.752;2023-02-17T05:47:56;52.10;;;29.13;;
70342;SDS011;57767;42.068;24.752;2023-02-17T05:48:57;57.10;;;31.05;;
70342;SDS011;57767;42.068;24.752;2023-02-17T05:50:00;50.33;;;30.33;;
70342;SDS011;57767;42.068;24.752;2023-02-17T05:51:02;50.38;;;31.38;;
70342;SDS011;57767;42.068;24.752;2023-02-17T05:52:04;54.05;;;30.80;;
70342;SDS011;57767;42.068;24.752;2023-02-17T05:53:05;53.42;;;32.17;;
70342;SDS011;57767;42.068;24.752;2023-02-17T05:54:07;52.42;;;32.92;;
70342;SDS011;57767;42.068;24.752;2023-02-17T05:55:09;59.35;;;32.08;;
70342;SDS011;57767;42.068;24.752;2023-02-17T05:56:11;48.67;;;30.45;;
70342;SDS011;57767;42.068;24.752;2023-02-17T05:57:13;49.47;;;28.35;;
70342;SDS011;57767;42.068;24.752;2023-02-17T05:58:14;48.83;;;29.83;;
70342;SDS011;57767;42.068;24.752;2023-02-17T05:59:16;46.20;;;28.38;;
70342;SDS011;57767;42.068;24.752;2023-02-17T06:00:18;48.22;;;28.02;;
70342;SDS011;57767;42.068;24.752;2023-02-17T06:01:20;52.08;;;28.70;;
70342;SDS011;57767;42.068;24.752;2023-02-17T06:02:22;49.72;;;27.65;;
70342;SDS011;57767;42.068;24.752;2023-02-17T06:03:24;51.42;;;27.02;;
70342;SDS011;57767;42.068;24.752;2023-02-17T06:04:26;47.38;;;26.67;;
70342;SDS011;57767;42.068;24.752;2023-02-17T06:05:28;47.00;;;26.30;;
70342;SDS011;57767;42.068;24.752;2023-02-17T06:06:29;41.22;;;27.33;;
70342;SDS011;57767;42.068;24.752;2023-02-17T06:07:31;45.85;;;27.27;;
70342;SDS011;57767;42.068;24.752;2023-02-17T06:08:33;47.75;;;28.80;;
70342;SDS011;57767;42.068;24.752;2023-02-17T06:09:35;44.92;;;26.58;;
70342;SDS011;57767;42.068;24.752;2023-02-17T06:10:37;43.25;;;24.73;;
70342;SDS011;57767;42.068;24.752;2023-02-17T06:11:39;42.83;;;25.40;;
70342;SDS011;57767;42.068;24.752;2023-02-17T06:12:40;40.80;;;25.02;;
70342;SDS011;57767;42.068;24.752;2023-02-17T06:13:42;36.83;;;23.55;;
70342;SDS011;57767;42.068;24.752;2023-02-17T06:14:44;37.35;;;24.10;;
70342;SDS011;57767;42.068;24.752;2023-02-17T06:15:46;38.78;;;23.65;;
70342;SDS011;57767;42.068;24.752;2023-02-17T06:16:48;34.35;;;23.00;;
70342;SDS011;57767;42.068;24.752;2023-02-17T06:17:50;38.25;;;23.50;;
70342;SDS011;57767;42.068;24.752;2023-02-17T06:18:51;38.40;;;22.35;;
70342;SDS011;57767;42.068;24.752;2023-02-17T06:19:53;31.63;;;21.55;;
70342;SDS011;57767;42.068;24.752;2023-02-17T06:20:55;34.50;;;22.27;;
70342;SDS011;57767;42.068;24.752;2023-02-17T06:21:58;38.92;;;22.15;;
70342;SDS011;57767;42.068;24.752;2023-02-17T06:22:59;36.08;;;22.80;;
70342;SDS011;57767;42.068;24.752;2023-02-17T06:24:01;35.90;;;20.95;;
70342;SDS011;57767;42.068;24.752;2023-02-17T06:25:03;37.30;;;21.95;;
70342;SDS011;57767;42.068;24.752;2023-02-17T06:26:05;37.35;;;22.92;;
70342;SDS011;57767;42.068;24.752;2023-02-17T06:27:07;37.20;;;23.48;;
70342;SDS011;57767;42.068;24.752;2023-02-17T06:28:09;36.33;;;23.67;;